Time;durP1;ratioP1;P1;durP2;ratioP2;P2;SDS_P1;SDS_P2;PMS_P1;PMS_P2;Temp;Humidity;BMP_temperature;BMP_pressure;BME280_temperature;BME280_humidity;BME280_pressure;Samples;Min_cycle;Max_cycle;Signal;HPM_P1;HPM_P2
2021/05/20 00:01:45;;;;;;;1.50;1.10;;;10.90;81.80;;;;;;5045095;28;20189;-74
2021/05/20 00:04:10;;;;;;;3.00;1.50;;;10.90;81.40;;;;;;5032925;28;20258;-74
2021/05/20 00:06:36;;;;;;;3.43;1.37;;;10.90;81.50;;;;;;5037033;28;20506;-75
2021/05/20 00:09:04;;;;;;;2.33;1.40;;;10.90;81.70;;;;;;5025047;28;20254;-76
2021/05/20 00:11:30;;;;;;;1.97;1.17;;;10.90;81.80;;;;;;5038174;28;20185;-75
2021/05/20 00:13:56;;;;;;;6.23;1.40;;;10.90;81.80;;;;;;5026852;28;20426;-75
2021/05/20 00:16:22;;;;;;;1.80;1.27;;;10.90;81.90;;;;;;5026811;28;20790;-76
2021/05/20 00:18:48;;;;;;;3.20;1.27;;;10.90;82.20;;;;;;5026697;28;20196;-76
2021/05/20 00:21:13;;;;;;;1.40;1.30;;;10.90;82.40;;;;;;5035644;28;20423;-76
2021/05/20 00:23:39;;;;;;;3.57;1.67;;;10.90;82.70;;;;;;5044820;28;20215;-74
2021/05/20 00:26:05;;;;;;;1.90;1.37;;;10.80;83.10;;;;;;5035885;28;20880;-74
2021/05/20 00:28:31;;;;;;;3.27;2.17;;;10.80;83.30;;;;;;5030296;28;20286;-75
2021/05/20 00:30:57;;;;;;;2.30;1.47;;;10.80;83.40;;;;;;5021818;28;20455;-75
2021/05/20 00:33:22;;;;;;;2.47;1.40;;;10.80;83.60;;;;;;5048521;28;20196;-75
2021/05/20 00:35:49;;;;;;;5.10;1.60;;;10.80;83.80;;;;;;5043033;28;20833;-75
2021/05/20 00:38:14;;;;;;;3.10;1.53;;;10.70;84.00;;;;;;5049210;28;20187;-74
2021/05/20 00:40:40;;;;;;;3.13;1.40;;;10.70;84.10;;;;;;5034959;28;20502;-75
2021/05/20 00:43:06;;;;;;;3.97;1.60;;;10.70;84.30;;;;;;5033516;28;20873;-75
2021/05/20 00:45:32;;;;;;;2.13;1.30;;;10.70;84.60;;;;;;5046886;28;21005;-74
2021/05/20 00:47:58;;;;;;;3.60;1.40;;;10.60;84.90;;;;;;5051386;28;20248;-75
2021/05/20 00:50:24;;;;;;;1.93;1.27;;;10.60;85.00;;;;;;5053063;28;20432;-74
2021/05/20 00:52:49;;;;;;;2.70;1.50;;;10.50;85.20;;;;;;5054960;28;20414;-75
2021/05/20 00:55:20;;;;;;;1.77;1.20;;;10.50;85.20;;;;;;5048048;28;20293;-75
2021/05/20 00:57:48;;;;;;;1.80;1.40;;;10.50;85.00;;;;;;5044970;28;20184;-75
2021/05/20 01:00:15;;;;;;;3.40;1.43;;;10.50;85.20;;;;;;5036828;28;20913;-76
2021/05/20 01:02:41;;;;;;;2.10;1.43;;;10.50;85.20;;;;;;5047977;28;20478;-76
2021/05/20 01:05:12;;;;;;;2.20;1.20;;;10.50;85.00;;;;;;5037782;28;20489;-75
2021/05/20 01:07:38;;;;;;;2.17;1.30;;;10.50;84.60;;;;;;5047039;28;20438;-75
2021/05/20 01:10:06;;;;;;;2.03;1.40;;;10.60;84.60;;;;;;5027231;28;20428;-75
2021/05/20 01:12:32;;;;;;;2.50;1.50;;;10.50;84.60;;;;;;5046575;28;21015;-75
2021/05/20 01:14:58;;;;;;;2.60;1.53;;;10.60;84.70;;;;;;5041330;28;20447;-75
2021/05/20 01:17:25;;;;;;;1.83;1.10;;;10.60;85.30;;;;;;5043986;28;20470;-75
2021/05/20 01:19:51;;;;;;;1.93;1.20;;;10.60;85.50;;;;;;5029156;28;20208;-76
2021/05/20 01:22:18;;;;;;;1.90;1.20;;;10.40;85.70;;;;;;5044977;28;20428;-75
2021/05/20 01:24:44;;;;;;;2.17;1.53;;;10.40;86.30;;;;;;5031302;28;20455;-75
2021/05/20 01:27:12;;;;;;;1.87;1.27;;;10.30;86.50;;;;;;5049516;28;20434;-75
2021/05/20 01:29:41;;;;;;;1.87;1.30;;;10.40;86.60;;;;;;5050360;28;20419;-75
2021/05/20 01:32:08;;;;;;;3.07;1.50;;;10.40;85.90;;;;;;5038601;28;20447;-74
2021/05/20 01:34:34;;;;;;;1.50;1.17;;;10.40;85.60;;;;;;5054338;28;20439;-75
2021/05/20 01:37:02;;;;;;;1.20;1.20;;;10.40;85.20;;;;;;5038609;28;20490;-74
2021/05/20 01:39:28;;;;;;;1.97;1.23;;;10.40;84.90;;;;;;5040751;28;20408;-76
2021/05/20 01:41:53;;;;;;;1.87;1.20;;;10.40;84.70;;;;;;5034163;28;20434;-76
2021/05/20 01:44:20;;;;;;;2.37;1.47;;;10.40;85.00;;;;;;5041331;28;20420;-76
2021/05/20 01:46:46;;;;;;;2.60;1.40;;;10.40;85.00;;;;;;5047952;28;20181;-77
2021/05/20 01:49:13;;;;;;;1.70;1.07;;;10.30;85.50;;;;;;5039581;28;20792;-76
2021/05/20 01:51:40;;;;;;;2.50;1.60;;;10.30;85.90;;;;;;5020103;28;20431;-75
2021/05/20 01:54:06;;;;;;;2.20;1.50;;;10.30;86.50;;;;;;5041080;28;20427;-77
2021/05/20 01:56:36;;;;;;;1.73;1.30;;;10.30;87.80;;;;;;5043499;28;20479;-75
2021/05/20 01:59:03;;;;;;;2.03;1.40;;;10.20;88.30;;;;;;5042275;28;20534;-76
2021/05/20 02:01:29;;;;;;;1.67;1.40;;;10.00;89.00;;;;;;5051492;28;20510;-76
2021/05/20 02:03:55;;;;;;;2.00;1.50;;;10.00;89.50;;;;;;5039566;28;20508;-76
2021/05/20 02:06:20;;;;;;;1.90;1.30;;;9.90;89.70;;;;;;5050199;28;20200;-75
2021/05/20 02:08:46;;;;;;;4.30;1.47;;;9.90;89.50;;;;;;5038508;28;20928;-76
2021/05/20 02:11:12;;;;;;;3.83;1.83;;;9.90;89.70;;;;;;5049899;28;20180;-75
2021/05/20 02:13:38;;;;;;;3.23;1.70;;;9.90;89.60;;;;;;5051029;28;20199;-75
2021/05/20 02:16:05;;;;;;;2.00;1.40;;;9.90;89.30;;;;;;5037480;28;20208;-75
2021/05/20 02:18:30;;;;;;;2.87;1.50;;;10.00;89.00;;;;;;5034969;28;20181;-74
2021/05/20 02:20:56;;;;;;;1.60;1.30;;;10.00;89.00;;;;;;5029945;28;20473;-74
2021/05/20 02:23:22;;;;;;;3.40;1.50;;;9.90;88.90;;;;;;5029162;28;20192;-74
2021/05/20 02:25:48;;;;;;;1.90;1.33;;;9.90;89.20;;;;;;5043310;28;20263;-75
2021/05/20 02:28:14;;;;;;;3.57;1.50;;;9.80;89.00;;;;;;5042871;28;20306;-76
2021/05/20 02:30:40;;;;;;;2.07;1.30;;;9.80;89.30;;;;;;5028813;28;20197;-76
2021/05/20 02:33:05;;;;;;;1.80;1.40;;;9.70;89.30;;;;;;5029541;28;20426;-74
2021/05/20 02:35:31;;;;;;;2.87;1.50;;;9.70;89.30;;;;;;5048207;28;20216;-75
2021/05/20 02:37:57;;;;;;;1.67;1.17;;;9.70;89.50;;;;;;5051042;28;20263;-74
2021/05/20 02:40:24;;;;;;;2.73;1.50;;;9.70;89.30;;;;;;5045033;28;20220;-76
2021/05/20 02:42:50;;;;;;;2.43;1.40;;;9.70;89.30;;;;;;5029703;28;20774;-75
2021/05/20 02:45:21;;;;;;;4.70;1.70;;;9.70;89.50;;;;;;5029645;28;20446;-75
2021/05/20 02:47:48;;;;;;;2.80;1.50;;;9.70;89.50;;;;;;5042838;28;20181;-75
2021/05/20 02:50:15;;;;;;;3.77;1.40;;;9.70;89.20;;;;;;5040639;28;20432;-75
2021/05/20 02:52:44;;;;;;;4.23;1.50;;;9.70;89.20;;;;;;5029665;28;20937;-75
2021/05/20 02:55:29;;;;;;;3.17;1.60;;;9.70;89.20;;;;;;5029489;28;20448;-75
2021/05/20 02:57:58;;;;;;;2.30;1.40;;;9.60;89.50;;;;;;5029217;28;20734;-75
2021/05/20 03:00:28;;;;;;;1.67;1.50;;;9.60;89.60;;;;;;5028666;28;20427;-74
2021/05/20 03:02:54;;;;;;;5.80;1.47;;;9.60;89.60;;;;;;5033059;28;20951;-75
2021/05/20 03:05:20;;;;;;;3.07;1.40;;;9.60;89.50;;;;;;5039337;28;20447;-74
2021/05/20 03:07:46;;;;;;;2.90;1.33;;;9.60;89.50;;;;;;5030100;28;20244;-76
2021/05/20 03:10:12;;;;;;;2.93;1.37;;;9.60;89.50;;;;;;5028122;28;20235;-75
2021/05/20 03:12:38;;;;;;;2.03;1.40;;;9.60;89.60;;;;;;5042187;28;20411;-76
2021/05/20 03:15:05;;;;;;;1.57;1.30;;;9.50;89.90;;;;;;5040703;28;20446;-75
2021/05/20 03:17:33;;;;;;;1.53;1.23;;;9.50;89.90;;;;;;5045784;28;20185;-75
2021/05/20 03:19:58;;;;;;;2.73;1.63;;;9.60;89.70;;;;;;5035616;28;20508;-75
2021/05/20 03:22:24;;;;;;;1.77;1.23;;;9.50;89.90;;;;;;5060458;28;20416;-76
2021/05/20 03:24:50;;;;;;;3.37;1.37;;;9.50;89.70;;;;;;5042253;28;20208;-76
2021/05/20 03:27:18;;;;;;;2.47;1.50;;;9.50;90.10;;;;;;5030822;28;20576;-76
2021/05/20 03:29:43;;;;;;;2.90;1.70;;;9.50;90.10;;;;;;5030353;28;20424;-76
2021/05/20 03:32:09;;;;;;;1.20;1.00;;;9.50;89.90;;;;;;5028100;28;20446;-75
2021/05/20 03:34:35;;;;;;;2.93;1.40;;;9.60;89.60;;;;;;5039967;28;20667;-75
2021/05/20 03:37:02;;;;;;;2.30;1.40;;;9.60;89.90;;;;;;5042820;28;20181;-74
2021/05/20 03:39:27;;;;;;;3.30;1.67;;;9.70;89.90;;;;;;5038510;28;20301;-75
2021/05/20 03:41:53;;;;;;;2.23;1.33;;;9.70;89.90;;;;;;5040135;28;20897;-75
2021/05/20 03:44:19;;;;;;;6.80;1.50;;;9.80;90.00;;;;;;5057605;28;20267;-75
2021/05/20 03:46:44;;;;;;;4.03;1.70;;;9.70;89.90;;;;;;5035304;28;20695;-75
2021/05/20 03:49:10;;;;;;;1.50;1.20;;;9.60;90.20;;;;;;5029598;28;20175;-76
2021/05/20 03:51:36;;;;;;;5.10;1.70;;;9.70;90.50;;;;;;5032641;28;20189;-73
2021/05/20 03:54:02;;;;;;;2.83;1.23;;;9.80;90.50;;;;;;5041983;28;20181;-73
2021/05/20 03:56:27;;;;;;;2.00;1.40;;;9.80;90.50;;;;;;5051479;28;20291;-74
2021/05/20 03:58:53;;;;;;;4.30;1.80;;;9.80;90.80;;;;;;5038767;28;20474;-73
2021/05/20 04:01:19;;;;;;;5.30;1.23;;;9.70;91.10;;;;;;5042803;28;20653;-74
2021/05/20 04:03:44;;;;;;;2.03;1.37;;;9.60;91.90;;;;;;5029131;28;20204;-74
2021/05/20 04:06:10;;;;;;;1.50;1.10;;;9.50;92.30;;;;;;5029226;28;20705;-75
2021/05/20 04:08:36;;;;;;;2.57;1.50;;;9.40;92.40;;;;;;5040874;28;20176;-74
2021/05/20 04:11:03;;;;;;;2.17;1.50;;;9.40;92.60;;;;;;5040973;28;20183;-74
2021/05/20 04:13:36;;;;;;;1.97;1.23;;;9.40;92.50;;;;;;5042208;28;21072;-74
2021/05/20 04:16:03;;;;;;;4.07;1.53;;;9.40;92.50;;;;;;5033961;28;20451;-76
2021/05/20 04:18:30;;;;;;;4.17;1.53;;;9.50;92.20;;;;;;5032895;28;20438;-73
2021/05/20 04:20:56;;;;;;;2.73;1.33;;;9.50;92.10;;;;;;5052857;28;20423;-74
2021/05/20 04:23:22;;;;;;;2.47;1.37;;;9.40;92.30;;;;;;5041703;28;20510;-74
2021/05/20 04:25:49;;;;;;;2.47;1.40;;;9.40;92.40;;;;;;5039417;28;20455;-74
2021/05/20 04:28:15;;;;;;;5.37;1.37;;;9.40;92.60;;;;;;5041391;28;20414;-73
2021/05/20 04:30:42;;;;;;;4.70;1.67;;;9.50;92.30;;;;;;5038020;28;20949;-76
2021/05/20 04:33:07;;;;;;;2.40;1.30;;;9.60;92.30;;;;;;5033921;28;20411;-75
2021/05/20 04:35:34;;;;;;;3.00;1.40;;;9.70;91.70;;;;;;5036927;28;20967;-75
2021/05/20 04:38:00;;;;;;;3.30;1.37;;;9.70;90.90;;;;;;5017668;28;20707;-76
2021/05/20 04:40:26;;;;;;;1.83;1.20;;;9.80;90.80;;;;;;5039879;28;20416;-76
2021/05/20 04:42:52;;;;;;;2.73;1.43;;;9.90;90.40;;;;;;5023036;28;20416;-76
2021/05/20 04:45:18;;;;;;;2.70;1.20;;;10.10;90.40;;;;;;5033933;28;20542;-75
2021/05/20 04:47:45;;;;;;;1.73;1.10;;;10.10;89.70;;;;;;5034147;28;20534;-73
2021/05/20 04:50:11;;;;;;;3.77;1.30;;;10.30;88.40;;;;;;5045464;28;20506;-75
2021/05/20 04:52:37;;;;;;;2.13;1.20;;;10.40;87.40;;;;;;5033596;28;20420;-75
2021/05/20 04:55:04;;;;;;;3.90;1.30;;;10.40;87.40;;;;;;5032110;28;20811;-75
2021/05/20 04:57:29;;;;;;;3.00;1.63;;;10.40;88.40;;;;;;5033250;28;20243;-74
2021/05/20 04:59:55;;;;;;;2.50;1.50;;;10.50;88.30;;;;;;5046058;28;20431;-73
2021/05/20 05:02:21;;;;;;;1.80;1.23;;;10.50;88.60;;;;;;5033961;28;20181;-73
2021/05/20 05:04:46;;;;;;;1.67;1.10;;;10.50;88.70;;;;;;5039797;28;20279;-73
2021/05/20 05:07:12;;;;;;;2.50;1.40;;;10.50;88.70;;;;;;5052898;28;20207;-78
2021/05/20 05:09:38;;;;;;;2.07;1.30;;;10.60;89.00;;;;;;5045943;28;20269;-74
2021/05/20 05:12:04;;;;;;;4.90;1.30;;;10.60;88.40;;;;;;5033947;28;20807;-75
2021/05/20 05:14:30;;;;;;;1.20;1.10;;;10.50;88.70;;;;;;5052897;28;20582;-74
2021/05/20 05:16:55;;;;;;;2.37;1.27;;;10.40;88.90;;;;;;5041278;28;20426;-74
2021/05/20 05:19:21;;;;;;;1.67;1.20;;;10.40;88.90;;;;;;5046824;28;20181;-74
2021/05/20 05:21:47;;;;;;;2.90;1.50;;;10.40;88.70;;;;;;5033825;28;20185;-74
2021/05/20 05:24:13;;;;;;;2.60;1.50;;;10.40;88.70;;;;;;5038664;28;20180;-75
2021/05/20 05:26:39;;;;;;;2.00;1.53;;;10.50;89.00;;;;;;5040052;28;20241;-77
2021/05/20 05:29:05;;;;;;;3.13;1.50;;;10.60;88.90;;;;;;5045461;28;20925;-75
2021/05/20 05:31:32;;;;;;;1.80;1.40;;;10.50;88.60;;;;;;5016870;28;20449;-74
2021/05/20 05:33:59;;;;;;;1.47;1.20;;;10.20;89.30;;;;;;5048346;28;20425;-75
2021/05/20 05:36:25;;;;;;;2.03;1.30;;;10.10;89.90;;;;;;5039785;28;20505;-74
2021/05/20 05:38:51;;;;;;;1.93;1.23;;;10.10;90.30;;;;;;5037695;28;20416;-75
2021/05/20 05:41:17;;;;;;;2.57;1.37;;;10.10;90.40;;;;;;5041360;28;20438;-76
2021/05/20 05:43:43;;;;;;;2.40;1.47;;;10.10;90.60;;;;;;5046362;28;20423;-75
2021/05/20 05:46:10;;;;;;;3.73;1.90;;;10.20;90.50;;;;;;5044603;28;20470;-77
2021/05/20 05:48:36;;;;;;;2.40;1.30;;;10.30;90.20;;;;;;5028552;28;20413;-75
2021/05/20 05:51:04;;;;;;;2.70;1.40;;;10.40;89.60;;;;;;5037360;28;20419;-77
2021/05/20 05:53:30;;;;;;;2.60;1.50;;;10.40;89.70;;;;;;5039402;28;20970;-78
2021/05/20 05:55:56;;;;;;;1.73;1.17;;;10.50;89.90;;;;;;5040202;28;20439;-77
2021/05/20 05:58:22;;;;;;;2.73;1.63;;;10.60;89.20;;;;;;5045416;28;20193;-76
2021/05/20 06:00:48;;;;;;;2.07;1.30;;;10.60;88.90;;;;;;5019065;28;20946;-74
2021/05/20 06:03:15;;;;;;;1.70;1.40;;;10.80;88.40;;;;;;5043872;28;20199;-76
2021/05/20 06:05:41;;;;;;;2.20;1.53;;;10.90;88.00;;;;;;5019228;28;20212;-73
2021/05/20 06:08:06;;;;;;;1.80;1.40;;;11.20;87.70;;;;;;5043208;28;20574;-74
2021/05/20 06:10:32;;;;;;;2.73;1.50;;;11.40;86.20;;;;;;5031954;28;20502;-76
2021/05/20 06:12:59;;;;;;;2.30;1.70;;;11.40;85.30;;;;;;5038381;28;20172;-74
2021/05/20 06:15:25;;;;;;;4.53;2.20;;;11.40;85.60;;;;;;5038024;28;20193;-74
2021/05/20 06:17:51;;;;;;;2.90;1.57;;;11.40;85.90;;;;;;5051598;28;20509;-74
2021/05/20 06:20:16;;;;;;;2.13;1.40;;;11.40;86.00;;;;;;5050894;28;20212;-75
2021/05/20 06:22:42;;;;;;;5.47;1.40;;;11.40;86.00;;;;;;5038771;28;20177;-76
2021/05/20 06:25:08;;;;;;;1.90;1.30;;;11.40;84.90;;;;;;5037826;28;20212;-74
2021/05/20 06:27:34;;;;;;;3.30;1.67;;;11.40;85.00;;;;;;5031588;28;20205;-76
2021/05/20 06:30:00;;;;;;;2.73;1.27;;;11.40;84.70;;;;;;5045284;28;20948;-73
2021/05/20 06:32:27;;;;;;;3.30;1.40;;;11.50;84.40;;;;;;5033509;28;20192;-73
2021/05/20 06:34:53;;;;;;;1.57;1.30;;;11.60;84.40;;;;;;5045739;28;20208;-74
2021/05/20 06:37:19;;;;;;;2.30;1.50;;;11.60;83.60;;;;;;5032319;28;20428;-77
2021/05/20 06:39:45;;;;;;;4.07;2.03;;;11.40;84.30;;;;;;5030161;28;20272;-74
2021/05/20 06:42:11;;;;;;;4.23;1.53;;;11.40;85.00;;;;;;5050530;28;20185;-74
2021/05/20 06:44:37;;;;;;;2.10;1.53;;;11.40;84.70;;;;;;5051355;28;20956;-74
2021/05/20 06:47:04;;;;;;;2.13;1.47;;;11.40;85.30;;;;;;5036376;28;20479;-75
2021/05/20 06:49:30;;;;;;;1.40;1.23;;;11.30;85.60;;;;;;5049757;28;20427;-77
2021/05/20 06:51:56;;;;;;;2.50;1.87;;;11.40;86.20;;;;;;5037700;28;20921;-77
2021/05/20 06:54:22;;;;;;;1.67;1.20;;;11.60;84.00;;;;;;5037704;28;20420;-76
2021/05/20 06:56:52;;;;;;;3.03;1.90;;;11.60;83.40;;;;;;5042839;28;20523;-76
2021/05/20 07:02:02;;;;;;;5.30;1.90;;;11.80;82.80;;;;;;5041179;28;20422;-74
2021/05/20 07:04:28;;;;;;;2.50;1.63;;;11.70;82.50;;;;;;5030462;28;20444;-77
2021/05/20 07:06:54;;;;;;;3.37;1.90;;;11.70;82.80;;;;;;5040176;28;20276;-74
2021/05/20 07:09:20;;;;;;;2.20;1.87;;;11.90;82.40;;;;;;5032005;28;20204;-76
2021/05/20 07:11:46;;;;;;;3.80;1.70;;;12.00;82.40;;;;;;5040706;28;20492;-75
2021/05/20 07:14:12;;;;;;;3.10;1.93;;;12.10;81.90;;;;;;5036202;28;21102;-76
2021/05/20 07:16:37;;;;;;;4.47;1.70;;;12.30;80.80;;;;;;5040708;28;20185;-75
2021/05/20 07:19:03;;;;;;;2.43;1.63;;;12.40;79.90;;;;;;5021347;28;20586;-74
2021/05/20 07:21:29;;;;;;;3.80;2.07;;;12.40;80.20;;;;;;5040427;28;20181;-75
2021/05/20 07:23:55;;;;;;;3.47;1.93;;;12.50;80.80;;;;;;5050823;28;20546;-76
2021/05/20 07:26:20;;;;;;;4.23;1.80;;;12.50;80.00;;;;;;5050543;28;20212;-77
2021/05/20 07:28:46;;;;;;;2.27;1.50;;;12.50;80.20;;;;;;5027341;28;20193;-76
2021/05/20 07:31:12;;;;;;;1.93;1.40;;;12.40;80.00;;;;;;5023179;28;20193;-74
2021/05/20 07:33:38;;;;;;;2.23;1.83;;;12.40;80.90;;;;;;5030042;28;20181;-77
2021/05/20 07:36:06;;;;;;;2.30;1.70;;;12.40;80.80;;;;;;5028953;28;20586;-74
2021/05/20 07:38:32;;;;;;;2.40;1.47;;;12.50;80.50;;;;;;5032851;28;20926;-75
2021/05/20 07:40:58;;;;;;;2.77;2.00;;;12.60;78.90;;;;;;5041812;28;20427;-76
2021/05/20 07:43:24;;;;;;;2.70;2.03;;;12.70;77.60;;;;;;5044717;28;20434;-77
2021/05/20 07:45:51;;;;;;;3.67;1.77;;;12.60;76.20;;;;;;5044598;28;20439;-73
2021/05/20 07:48:17;;;;;;;2.27;1.70;;;12.50;78.10;;;;;;5038693;28;20177;-73
2021/05/20 07:50:43;;;;;;;2.53;1.80;;;12.50;78.60;;;;;;5042251;28;20480;-73
2021/05/20 07:53:10;;;;;;;2.03;1.63;;;12.80;78.30;;;;;;5053553;28;20415;-74
2021/05/20 07:55:36;;;;;;;1.70;1.57;;;13.00;77.80;;;;;;5044862;28;20197;-75
2021/05/20 07:58:04;;;;;;;2.80;1.60;;;13.00;76.80;;;;;;5048755;28;20455;-74
2021/05/20 08:00:31;;;;;;;2.27;1.77;;;13.00;75.90;;;;;;5047478;28;20419;-74
2021/05/20 08:03:12;;;;;;;3.80;1.70;;;13.00;75.10;;;;;;5045788;28;20418;-77
2021/05/20 08:05:58;;;;;;;2.80;1.33;;;12.90;76.10;;;;;;5042978;28;20448;-74
2021/05/20 08:13:16;;;;;;;2.90;1.70;;;12.90;74.20;;;;;;5051208;28;20191;-75
2021/05/20 08:15:42;;;;;;;2.53;1.43;;;12.70;74.50;;;;;;5044759;28;20559;-73
2021/05/20 08:18:08;;;;;;;1.60;1.10;;;12.70;74.30;;;;;;5053585;28;20414;-73
2021/05/20 08:20:33;;;;;;;2.03;1.50;;;12.80;73.60;;;;;;5039844;28;20408;-74
2021/05/20 08:22:59;;;;;;;2.70;1.23;;;12.70;74.20;;;;;;5044420;28;20192;-74
2021/05/20 08:25:26;;;;;;;8.50;1.40;;;12.80;74.80;;;;;;5033488;28;20571;-75
2021/05/20 08:27:51;;;;;;;4.73;1.83;;;12.90;75.20;;;;;;5033447;28;20646;-73
2021/05/20 08:30:19;;;;;;;2.30;1.70;;;13.00;75.20;;;;;;5020282;28;20530;-75
2021/05/20 08:32:47;;;;;;;3.57;1.40;;;13.20;74.50;;;;;;5033196;28;20212;-75
2021/05/20 08:35:13;;;;;;;2.43;1.20;;;13.20;73.00;;;;;;5048503;28;20445;-77
2021/05/20 08:37:39;;;;;;;2.07;1.23;;;13.50;72.60;;;;;;5053573;28;20425;-75
2021/05/20 08:40:10;;;;;;;2.27;1.10;;;13.50;71.30;;;;;;5050772;28;20533;-74
2021/05/20 08:42:37;;;;;;;1.80;1.33;;;13.70;70.80;;;;;;5042721;28;20422;-74
2021/05/20 08:45:18;;;;;;;4.37;1.43;;;13.60;70.50;;;;;;5039569;28;20435;-75
2021/05/20 08:47:45;;;;;;;2.67;1.33;;;13.50;70.70;;;;;;5041189;28;20458;-75
2021/05/20 08:50:13;;;;;;;2.40;1.40;;;13.50;72.10;;;;;;5020043;28;20416;-74
2021/05/20 08:52:40;;;;;;;2.17;1.43;;;13.40;73.00;;;;;;5045922;28;20928;-74
2021/05/20 08:55:09;;;;;;;3.53;1.30;;;13.10;73.90;;;;;;5026931;28;20451;-74
2021/05/20 08:57:35;;;;;;;2.33;1.60;;;13.00;74.60;;;;;;5040240;28;20430;-76
2021/05/20 09:00:03;;;;;;;3.03;1.37;;;13.30;73.50;;;;;;5039949;28;20844;-73
2021/05/20 09:02:31;;;;;;;2.73;1.80;;;13.30;72.90;;;;;;5052447;28;20423;-74
2021/05/20 09:04:57;;;;;;;2.40;1.30;;;13.50;72.40;;;;;;5041864;28;20442;-74
2021/05/20 09:07:35;;;;;;;1.47;1.20;;;13.60;72.00;;;;;;5040706;28;20459;-75
2021/05/20 09:10:19;;;;;;;1.60;1.00;;;13.50;69.70;;;;;;5044852;28;20909;-74
2021/05/20 09:12:47;;;;;;;1.77;1.20;;;13.30;69.70;;;;;;5040824;28;20422;-74
2021/05/20 09:15:17;;;;;;;1.73;1.27;;;13.60;69.50;;;;;;5043783;28;20439;-76
2021/05/20 09:17:45;;;;;;;1.67;1.10;;;13.90;68.50;;;;;;5054676;28;20430;-74
2021/05/20 09:20:11;;;;;;;2.80;1.13;;;14.10;68.60;;;;;;5041305;28;20431;-74
2021/05/20 09:22:37;;;;;;;2.83;1.23;;;14.40;66.40;;;;;;5047719;28;20995;-74
2021/05/20 09:25:05;;;;;;;1.80;1.00;;;14.40;66.30;;;;;;5048150;28;20441;-74
2021/05/20 09:27:37;;;;;;;3.57;1.30;;;14.20;66.30;;;;;;5041243;28;20458;-75
2021/05/20 09:30:18;;;;;;;1.97;1.30;;;13.70;67.70;;;;;;5034797;28;20425;-76
2021/05/20 09:32:55;;;;;;;2.33;1.20;;;13.70;69.20;;;;;;5029681;28;20441;-74
2021/05/20 09:35:27;;;;;;;2.30;1.30;;;13.80;69.70;;;;;;5040760;28;20484;-76
2021/05/20 09:37:59;;;;;;;4.80;1.13;;;14.00;69.40;;;;;;5042976;28;20514;-76
2021/05/20 09:40:35;;;;;;;1.50;1.30;;;14.00;67.00;;;;;;5044798;28;20428;-74
2021/05/20 09:43:01;;;;;;;1.63;1.30;;;14.00;66.90;;;;;;5045540;28;20905;-77
2021/05/20 09:45:28;;;;;;;2.27;1.50;;;13.80;66.40;;;;;;5045992;28;20546;-75
2021/05/20 09:48:07;;;;;;;3.40;1.30;;;13.60;68.30;;;;;;5045360;28;20207;-74
2021/05/20 09:50:38;;;;;;;2.80;1.77;;;13.60;68.80;;;;;;5043826;28;20401;-79
2021/05/20 09:53:09;;;;;;;3.10;1.57;;;13.80;69.20;;;;;;5045708;28;20399;-73
2021/05/20 09:55:35;;;;;;;3.50;1.70;;;13.70;69.50;;;;;;5041933;28;20423;-73
2021/05/20 09:58:08;;;;;;;3.50;1.60;;;13.80;69.20;;;;;;5035371;28;21017;-74
2021/05/20 10:00:35;;;;;;;1.50;1.20;;;14.00;68.30;;;;;;5043218;28;20259;-74
2021/05/20 10:03:06;;;;;;;2.10;1.53;;;14.20;67.90;;;;;;5047378;28;20454;-74
2021/05/20 10:05:53;;;;;;;3.27;1.30;;;14.20;66.70;;;;;;5042328;28;20504;-78
2021/05/20 10:08:20;;;;;;;2.27;1.37;;;14.00;67.20;;;;;;5018830;28;20424;-73
2021/05/20 10:10:54;;;;;;;4.73;2.03;;;13.90;67.30;;;;;;5033638;28;20412;-75
2021/05/20 10:13:26;;;;;;;5.40;1.60;;;14.10;67.90;;;;;;5041336;28;20431;-75
2021/05/20 10:15:53;;;;;;;3.03;1.20;;;14.40;64.70;;;;;;5043226;28;20852;-75
2021/05/20 10:18:25;;;;;;;2.50;1.20;;;14.60;61.60;;;;;;5042650;28;20922;-75
2021/05/20 10:20:58;;;;;;;1.40;1.13;;;14.60;62.00;;;;;;5033170;28;20439;-73
2021/05/20 10:23:25;;;;;;;1.93;1.33;;;14.60;61.70;;;;;;5044929;28;20418;-76
2021/05/20 10:25:54;;;;;;;1.60;1.30;;;14.90;62.20;;;;;;5025082;28;20929;-73
2021/05/20 10:28:21;;;;;;;1.60;1.10;;;15.60;59.70;;;;;;5037335;28;20424;-76
2021/05/20 10:30:50;;;;;;;1.20;0.80;;;16.20;56.90;;;;;;5041500;28;20446;-74
2021/05/20 10:33:17;;;;;;;1.97;1.20;;;16.30;56.90;;;;;;5030843;28;20418;-75
2021/05/20 10:35:51;;;;;;;2.47;1.10;;;16.10;55.00;;;;;;5043157;28;20943;-77
2021/05/20 10:38:38;;;;;;;2.03;0.97;;;16.40;56.00;;;;;;5042269;28;20503;-75
2021/05/20 10:41:20;;;;;;;2.70;1.07;;;16.00;55.20;;;;;;5039630;28;20417;-75
2021/05/20 10:43:49;;;;;;;2.70;0.90;;;15.70;54.40;;;;;;5036014;28;20439;-76
2021/05/20 10:46:19;;;;;;;4.13;1.03;;;15.40;54.60;;;;;;5035648;28;21127;-74
2021/05/20 10:48:49;;;;;;;2.73;1.40;;;15.40;54.50;;;;;;5016344;28;20414;-77
2021/05/20 10:51:23;;;;;;;1.93;1.00;;;16.10;54.00;;;;;;5027747;28;20426;-74
2021/05/20 10:53:54;;;;;;;1.53;1.20;;;16.60;51.70;;;;;;5040872;28;21213;-75
2021/05/20 10:56:25;;;;;;;2.43;1.10;;;16.40;52.60;;;;;;5043723;28;20521;-76
2021/05/20 10:58:52;;;;;;;1.20;0.93;;;16.40;52.40;;;;;;5033928;28;20420;-74
2021/05/20 11:01:20;;;;;;;1.07;0.80;;;16.40;52.50;;;;;;5035095;28;20484;-75
2021/05/20 11:03:49;;;;;;;2.90;0.90;;;16.40;52.60;;;;;;5039205;28;20957;-76
2021/05/20 11:06:16;;;;;;;1.77;1.10;;;16.20;52.60;;;;;;5040897;28;20465;-76
2021/05/20 11:08:45;;;;;;;0.90;0.80;;;15.90;53.80;;;;;;5040326;28;20909;-76
2021/05/20 11:11:43;;;;;;;1.37;1.17;;;16.10;53.70;;;;;;5035652;28;20423;-76
2021/05/20 11:14:12;;;;;;;1.73;1.27;;;15.90;55.40;;;;;;5035449;28;20876;-76
2021/05/20 11:16:39;;;;;;;3.33;1.30;;;15.90;56.90;;;;;;5037332;28;20420;-75
2021/05/20 11:19:23;;;;;;;2.80;1.40;;;15.40;58.20;;;;;;5028230;28;20423;-76
2021/05/20 11:21:58;;;;;;;4.57;1.20;;;15.00;59.70;;;;;;5042209;28;20984;-74
2021/05/20 11:24:31;;;;;;;8.00;1.47;;;15.00;59.30;;;;;;5016837;28;20498;-75
2021/05/20 11:27:18;;;;;;;1.63;1.13;;;14.70;60.30;;;;;;5030814;28;20467;-75
2021/05/20 11:29:47;;;;;;;3.30;1.10;;;14.80;59.50;;;;;;5037392;28;20412;-75
2021/05/20 11:32:29;;;;;;;3.63;1.33;;;14.80;58.90;;;;;;5030336;28;20444;-76
2021/05/20 11:35:19;;;;;;;3.30;1.60;;;14.80;58.90;;;;;;5036414;28;20524;-74
2021/05/20 11:37:45;;;;;;;4.97;2.07;;;15.00;58.50;;;;;;5018593;28;20427;-76
2021/05/20 11:40:27;;;;;;;2.20;1.50;;;15.10;58.40;;;;;;5045495;28;20422;-76
2021/05/20 11:42:53;;;;;;;2.00;1.20;;;15.60;57.00;;;;;;5037419;28;20204;-76
2021/05/20 11:45:24;;;;;;;2.40;0.90;;;16.00;56.00;;;;;;5042347;28;21190;-75
2021/05/20 11:47:54;;;;;;;2.40;1.50;;;16.10;54.80;;;;;;5042278;28;20468;-77
2021/05/20 11:50:24;;;;;;;4.07;1.57;;;16.40;54.80;;;;;;5016477;28;20438;-75
2021/05/20 11:52:51;;;;;;;1.27;1.10;;;16.70;53.80;;;;;;5029136;28;20422;-74
2021/05/20 11:55:21;;;;;;;3.23;1.40;;;16.90;51.00;;;;;;5037355;28;20844;-76
2021/05/20 11:57:47;;;;;;;1.20;0.90;;;16.90;50.90;;;;;;5033748;28;20425;-76
2021/05/20 12:00:14;;;;;;;2.20;1.10;;;16.90;50.30;;;;;;5040628;28;20418;-73
2021/05/20 12:02:41;;;;;;;2.00;1.00;;;17.00;50.60;;;;;;5042731;28;20442;-75
2021/05/20 12:05:11;;;;;;;6.60;1.13;;;17.20;47.70;;;;;;5038438;28;20998;-75
2021/05/20 12:07:40;;;;;;;1.20;0.70;;;17.30;48.20;;;;;;5035101;28;20516;-75
2021/05/20 12:10:17;;;;;;;1.20;0.90;;;17.50;45.40;;;;;;5038928;28;20426;-75
2021/05/20 12:12:59;;;;;;;1.40;0.73;;;17.50;45.50;;;;;;5042451;28;20423;-75
2021/05/20 12:15:26;;;;;;;0.90;0.80;;;17.60;45.30;;;;;;5042552;28;20465;-74
2021/05/20 12:17:56;;;;;;;1.20;0.80;;;18.30;43.70;;;;;;5030727;28;20518;-75
2021/05/20 12:20:21;;;;;;;1.10;0.80;;;19.10;42.40;;;;;;5032221;28;20445;-74
2021/05/20 12:22:48;;;;;;;1.27;0.77;;;19.90;40.40;;;;;;5045170;28;20445;-76
2021/05/20 12:25:16;;;;;;;1.70;0.83;;;20.70;39.00;;;;;;5046014;28;20694;-76
2021/05/20 12:27:54;;;;;;;1.00;0.80;;;20.60;38.00;;;;;;5038633;28;20462;-75
2021/05/20 12:30:25;;;;;;;0.73;0.57;;;20.40;38.70;;;;;;5037036;28;20973;-76
2021/05/20 12:32:55;;;;;;;1.33;0.83;;;19.70;38.30;;;;;;5036408;28;20514;-76
2021/05/20 12:35:29;;;;;;;0.80;0.60;;;18.50;42.00;;;;;;5035279;28;20523;-74
2021/05/20 12:38:11;;;;;;;1.20;1.03;;;17.60;44.70;;;;;;5025109;28;20446;-76
2021/05/20 12:40:43;;;;;;;1.67;1.10;;;17.30;46.30;;;;;;5033687;28;20462;-74
2021/05/20 12:43:16;;;;;;;1.40;0.97;;;17.20;47.00;;;;;;5033697;28;20412;-76
2021/05/20 12:45:45;;;;;;;1.80;1.00;;;17.10;48.30;;;;;;5033857;28;20439;-74
2021/05/20 12:48:39;;;;;;;2.17;0.90;;;16.80;49.80;;;;;;5045421;28;21166;-74
2021/05/20 12:51:21;;;;;;;2.43;1.00;;;16.50;51.40;;;;;;5045812;28;20442;-74
2021/05/20 12:53:54;;;;;;;2.37;1.10;;;16.50;51.60;;;;;;5030220;28;20939;-75
2021/05/20 12:56:36;;;;;;;2.17;0.77;;;16.60;50.30;;;;;;5053047;28;20516;-74
2021/05/20 12:59:14;;;;;;;1.77;0.70;;;16.60;48.10;;;;;;5041433;28;20514;-76
2021/05/20 13:01:45;;;;;;;1.70;0.90;;;16.40;49.00;;;;;;5033384;28;20410;-75